Time;durP1;ratioP1;P1;durP2;ratioP2;P2;SDS_P1;SDS_P2;PMS_P1;PMS_P2;Temp;Humidity;BMP_temperature;BMP_pressure;BME280_temperature;BME280_humidity;BME280_pressure;Samples;Min_cycle;Max_cycle;Signal;HPM_P1;HPM_P2
2021/05/14 03:55:03;;;;;;;0.50;0.50;;;9.10;99.90;;;;;;4991757;28;20055;-67
2021/05/14 03:57:29;;;;;;;0.60;0.60;;;9.00;99.90;;;;;;4992750;28;20042;-66
2021/05/14 03:59:54;;;;;;;0.68;0.60;;;9.00;99.90;;;;;;4992344;28;20041;-67
2021/05/14 04:02:20;;;;;;;0.60;0.60;;;9.00;99.90;;;;;;4992369;28;20022;-67
2021/05/14 04:04:46;;;;;;;0.70;0.68;;;9.00;99.90;;;;;;4992675;28;20073;-67
2021/05/14 04:07:12;;;;;;;0.65;0.65;;;9.00;99.90;;;;;;5009574;28;20030;-67
2021/05/14 04:09:40;;;;;;;0.60;0.60;;;9.00;99.90;;;;;;5002116;28;20487;-67
2021/05/14 04:14:34;;;;;;;0.65;0.65;;;9.00;99.90;;;;;;5000826;28;20029;-67
2021/05/14 04:17:02;;;;;;;0.50;0.50;;;9.00;99.90;;;;;;5011174;28;20026;-67
2021/05/14 04:19:29;;;;;;;0.68;0.68;;;9.00;99.90;;;;;;4999252;28;20026;-67
2021/05/14 04:21:56;;;;;;;0.57;0.57;;;9.00;99.90;;;;;;4999022;28;20486;-67
2021/05/14 04:24:23;;;;;;;0.77;0.52;;;9.00;99.90;;;;;;4997124;28;20433;-67
2021/05/14 04:26:50;;;;;;;0.80;0.60;;;9.10;99.90;;;;;;5011836;28;20034;-66
2021/05/14 04:29:17;;;;;;;0.60;0.60;;;9.10;99.90;;;;;;4994161;28;20045;-66
2021/05/14 04:31:44;;;;;;;0.52;0.52;;;9.10;99.90;;;;;;4992431;28;20022;-67
2021/05/14 04:34:11;;;;;;;1.05;0.60;;;9.10;99.90;;;;;;5005883;28;20037;-67
2021/05/14 04:36:38;;;;;;;0.52;0.52;;;9.10;99.90;;;;;;4992416;28;20030;-66
2021/05/14 04:39:06;;;;;;;0.70;0.70;;;9.00;99.90;;;;;;4991854;28;20033;-65
2021/05/14 04:41:32;;;;;;;0.60;0.60;;;9.50;99.90;;;;;;4992229;28;20019;-66
2021/05/14 04:43:59;;;;;;;0.40;0.40;;;10.40;99.90;;;;;;4992092;28;20085;-65
2021/05/14 04:46:25;;;;;;;0.57;0.57;;;10.00;99.90;;;;;;5009397;28;20101;-66
2021/05/14 04:48:51;;;;;;;1.17;0.60;;;9.60;99.90;;;;;;4992000;28;20026;-68
2021/05/14 04:51:16;;;;;;;0.85;0.70;;;9.50;99.90;;;;;;4974298;28;20038;-70
2021/05/14 04:53:43;;;;;;;4.43;1.20;;;9.40;99.90;;;;;;4991979;28;20023;-68
2021/05/14 04:56:11;;;;;;;2.40;0.60;;;9.60;99.90;;;;;;4991613;28;20449;-69
2021/05/14 04:58:37;;;;;;;1.75;0.50;;;9.50;99.90;;;;;;4991730;28;20017;-68
2021/05/14 05:01:03;;;;;;;1.23;0.55;;;9.40;99.90;;;;;;4991687;28;20030;-68
2021/05/14 05:03:29;;;;;;;0.95;0.60;;;9.30;99.90;;;;;;4992033;28;20386;-69
2021/05/14 05:05:55;;;;;;;0.57;0.57;;;9.40;99.90;;;;;;4991840;28;20114;-69
2021/05/14 05:08:21;;;;;;;0.55;0.55;;;9.60;99.90;;;;;;4991688;28;20462;-70
2021/05/14 05:10:47;;;;;;;0.85;0.47;;;9.70;99.90;;;;;;4991680;28;20053;-70
2021/05/14 05:13:13;;;;;;;1.00;0.63;;;9.60;99.90;;;;;;4991689;28;20372;-70
2021/05/14 05:15:38;;;;;;;0.43;0.43;;;9.50;99.90;;;;;;4991833;28;20034;-70
2021/05/14 05:18:04;;;;;;;0.65;0.65;;;9.40;99.90;;;;;;4991528;28;20053;-69
2021/05/14 05:20:30;;;;;;;0.60;0.60;;;9.40;99.90;;;;;;5005452;28;20076;-69
2021/05/14 05:22:56;;;;;;;0.50;0.50;;;9.40;99.90;;;;;;4991658;28;20030;-70
2021/05/14 05:25:22;;;;;;;0.85;0.40;;;9.30;99.90;;;;;;4985986;28;20026;-72
2021/05/14 05:27:48;;;;;;;0.55;0.55;;;9.20;99.90;;;;;;4994642;28;20478;-72
2021/05/14 05:30:16;;;;;;;0.90;0.60;;;9.20;99.90;;;;;;4977673;28;20046;-67
2021/05/14 05:32:42;;;;;;;4.07;0.63;;;9.10;99.90;;;;;;4995350;28;20093;-67
2021/05/14 05:35:08;;;;;;;4.30;0.50;;;9.10;99.90;;;;;;4995044;28;20442;-68
2021/05/14 05:37:34;;;;;;;0.55;0.55;;;9.10;99.90;;;;;;4995191;28;20033;-67
2021/05/14 05:39:59;;;;;;;0.40;0.40;;;9.20;99.90;;;;;;4994805;28;20382;-67
2021/05/14 05:42:25;;;;;;;0.40;0.40;;;9.30;99.90;;;;;;4994949;28;20041;-67
2021/05/14 05:44:51;;;;;;;0.50;0.50;;;9.30;99.90;;;;;;4995009;28;20105;-67
2021/05/14 05:47:16;;;;;;;0.50;0.50;;;9.30;99.90;;;;;;4994588;28;20428;-67
2021/05/14 05:49:42;;;;;;;0.65;0.60;;;9.40;99.90;;;;;;4977401;28;20026;-67
2021/05/14 05:52:08;;;;;;;1.33;0.60;;;9.40;99.90;;;;;;4994517;28;20023;-67
2021/05/14 05:54:34;;;;;;;1.10;0.60;;;9.30;99.90;;;;;;4977442;28;20022;-67
2021/05/14 05:57:00;;;;;;;0.60;0.60;;;9.40;99.90;;;;;;4994495;28;20117;-68
2021/05/14 05:59:26;;;;;;;0.50;0.50;;;9.30;99.90;;;;;;4994911;28;20037;-67
2021/05/14 06:01:52;;;;;;;0.60;0.60;;;9.40;99.90;;;;;;5008431;28;20022;-71
2021/05/14 06:04:18;;;;;;;2.70;0.73;;;9.40;99.90;;;;;;4994529;28;20030;-68
2021/05/14 06:06:44;;;;;;;2.38;0.60;;;9.30;99.90;;;;;;4994445;28;20458;-68
2021/05/14 06:09:10;;;;;;;1.52;0.85;;;9.40;99.90;;;;;;4980764;28;20035;-67
2021/05/14 06:11:36;;;;;;;0.50;0.50;;;9.40;99.90;;;;;;4994566;28;20085;-67
2021/05/14 06:14:02;;;;;;;0.50;0.50;;;9.50;99.90;;;;;;5008154;28;20054;-66
2021/05/14 06:16:28;;;;;;;7.00;1.50;;;9.50;99.90;;;;;;4994491;28;20022;-65
2021/05/14 06:19:10;;;;;;;0.57;0.50;;;9.80;99.90;;;;;;4994227;28;20050;-65
2021/05/14 06:21:43;;;;;;;0.50;0.50;;;10.60;99.90;;;;;;4994654;28;20032;-65
2021/05/14 06:24:09;;;;;;;0.63;0.60;;;10.50;99.90;;;;;;4994115;28;20085;-66
2021/05/14 06:26:34;;;;;;;0.82;0.70;;;10.30;99.70;;;;;;4994161;28;20022;-65
2021/05/14 06:29:00;;;;;;;0.80;0.50;;;10.30;99.50;;;;;;4978048;28;20073;-65
2021/05/14 06:31:26;;;;;;;1.33;0.50;;;10.20;99.50;;;;;;5006572;28;20479;-66
2021/05/14 06:33:51;;;;;;;1.92;0.50;;;10.20;99.50;;;;;;4994425;28;20125;-65
2021/05/14 06:36:17;;;;;;;1.00;0.50;;;10.40;98.50;;;;;;4992956;28;20065;-65
2021/05/14 06:38:43;;;;;;;0.50;0.50;;;10.40;98.10;;;;;;4994039;28;20027;-66
2021/05/14 06:41:09;;;;;;;0.50;0.50;;;10.40;97.20;;;;;;4997080;28;20021;-66
2021/05/14 06:43:34;;;;;;;0.50;0.50;;;10.40;97.50;;;;;;4995830;28;20025;-66
2021/05/14 06:46:01;;;;;;;2.35;0.55;;;10.40;97.10;;;;;;5012204;28;20044;-65
2021/05/14 06:48:28;;;;;;;2.60;0.70;;;10.50;96.40;;;;;;4993709;28;20026;-65
2021/05/14 06:50:55;;;;;;;1.58;0.60;;;10.60;96.10;;;;;;4993846;28;20397;-66
2021/05/14 06:53:21;;;;;;;0.50;0.50;;;10.80;99.10;;;;;;4993627;28;20026;-67
2021/05/14 06:55:46;;;;;;;0.43;0.43;;;11.20;95.90;;;;;;4993776;28;20051;-67
2021/05/14 06:58:13;;;;;;;0.82;0.50;;;11.10;93.80;;;;;;5007255;28;20038;-66
2021/05/14 07:00:39;;;;;;;0.50;0.50;;;11.10;93.50;;;;;;4980094;28;20026;-66
2021/05/14 07:03:05;;;;;;;0.50;0.50;;;11.10;93.60;;;;;;4993471;28;20029;-66
2021/05/14 07:05:31;;;;;;;2.28;0.40;;;11.10;92.50;;;;;;4975989;28;20018;-66
2021/05/14 07:07:56;;;;;;;0.50;0.50;;;11.10;92.50;;;;;;5003351;28;20038;-66
2021/05/14 07:10:23;;;;;;;0.50;0.50;;;11.10;91.80;;;;;;4996972;28;20061;-66
2021/05/14 07:12:50;;;;;;;1.05;0.40;;;11.00;91.60;;;;;;4993363;28;20027;-65
2021/05/14 07:15:16;;;;;;;1.02;0.40;;;11.00;91.80;;;;;;4983228;28;20430;-66
2021/05/14 07:17:42;;;;;;;0.50;0.50;;;11.00;90.80;;;;;;4993406;28;20080;-67
2021/05/14 07:20:09;;;;;;;1.27;0.43;;;11.10;91.00;;;;;;4993179;28;20047;-66
2021/05/14 07:22:35;;;;;;;10.07;0.60;;;11.10;90.10;;;;;;4992475;28;20097;-65
2021/05/14 07:25:03;;;;;;;0.60;0.40;;;11.10;90.10;;;;;;4984897;28;20019;-65
2021/05/14 07:27:29;;;;;;;0.85;0.30;;;11.10;91.10;;;;;;4969684;28;20038;-65
2021/05/14 07:29:55;;;;;;;0.40;0.40;;;11.30;90.90;;;;;;4992497;28;20446;-65
2021/05/14 07:32:20;;;;;;;2.15;0.40;;;11.40;89.10;;;;;;4992139;28;20037;-66
2021/05/14 07:34:46;;;;;;;0.30;0.30;;;11.40;88.30;;;;;;4992429;28;20059;-65
2021/05/14 07:37:12;;;;;;;0.32;0.32;;;11.50;87.00;;;;;;4983297;28;20027;-67
2021/05/14 07:39:38;;;;;;;0.40;0.40;;;11.60;86.60;;;;;;4991661;28;20042;-66
2021/05/14 07:42:05;;;;;;;0.50;0.50;;;11.60;85.30;;;;;;4992986;28;20030;-69
2021/05/14 07:44:31;;;;;;;2.72;0.65;;;11.70;88.10;;;;;;4992560;28;20023;-70
2021/05/14 07:46:57;;;;;;;0.50;0.50;;;11.70;84.30;;;;;;4992322;28;20141;-70
2021/05/14 07:49:23;;;;;;;1.30;0.50;;;11.70;84.90;;;;;;4992478;28;20022;-70
2021/05/14 07:51:49;;;;;;;0.50;0.40;;;11.80;83.90;;;;;;4992817;28;20027;-71
2021/05/14 07:54:15;;;;;;;0.50;0.50;;;11.90;81.50;;;;;;4992762;28;20026;-71
2021/05/14 07:56:40;;;;;;;0.73;0.38;;;11.90;82.40;;;;;;4992295;28;20491;-70
2021/05/14 07:59:06;;;;;;;4.57;0.50;;;11.80;81.00;;;;;;4992230;28;20120;-69
2021/05/14 08:01:32;;;;;;;2.15;0.40;;;11.80;81.40;;;;;;4987438;28;20371;-69
2021/05/14 08:03:58;;;;;;;2.78;0.50;;;11.70;80.30;;;;;;4990895;28;20027;-65
2021/05/14 08:06:24;;;;;;;1.58;0.50;;;11.60;80.70;;;;;;4967599;28;20022;-65
2021/05/14 08:08:51;;;;;;;2.17;0.50;;;11.60;81.60;;;;;;4989516;28;20146;-65
2021/05/14 08:11:16;;;;;;;0.60;0.50;;;11.80;82.50;;;;;;4974756;28;20053;-65
2021/05/14 08:13:42;;;;;;;0.75;0.38;;;11.90;81.40;;;;;;4992441;28;20120;-65
2021/05/14 08:16:08;;;;;;;0.98;0.40;;;11.90;80.10;;;;;;4989249;28;20488;-64
2021/05/14 08:18:34;;;;;;;0.65;0.50;;;11.80;80.60;;;;;;4992362;28;20113;-64
2021/05/14 08:21:00;;;;;;;12.27;1.15;;;11.90;80.60;;;;;;4992631;28;20033;-63
2021/05/14 08:23:25;;;;;;;5.07;0.50;;;11.90;89.70;;;;;;4992042;28;20770;-65
2021/05/14 08:25:51;;;;;;;0.60;0.50;;;12.80;81.40;;;;;;4992292;28;20026;-64
2021/05/14 08:28:18;;;;;;;0.70;0.50;;;12.80;77.90;;;;;;4983856;28;20035;-64
2021/05/14 08:30:45;;;;;;;4.43;0.70;;;12.70;77.40;;;;;;4987922;28;20040;-64
2021/05/14 08:33:11;;;;;;;0.95;0.55;;;12.40;76.50;;;;;;4991860;28;20475;-65
2021/05/14 08:35:38;;;;;;;0.90;0.50;;;12.30;77.70;;;;;;4992022;28;20121;-65
2021/05/14 08:38:05;;;;;;;0.60;0.60;;;12.20;77.00;;;;;;4991228;28;20098;-65
2021/05/14 08:40:32;;;;;;;2.60;0.50;;;12.00;77.70;;;;;;4991945;28;20032;-65
2021/05/14 08:42:58;;;;;;;0.40;0.40;;;11.80;78.80;;;;;;4991935;28;20022;-64
2021/05/14 08:45:24;;;;;;;0.43;0.43;;;11.90;79.30;;;;;;4991923;28;20045;-65
2021/05/14 08:47:54;;;;;;;0.95;0.50;;;11.90;79.40;;;;;;4989480;28;20042;-65
2021/05/14 08:50:21;;;;;;;0.50;0.50;;;11.90;78.70;;;;;;4990660;28;20514;-65
2021/05/14 08:52:47;;;;;;;0.40;0.40;;;11.90;79.40;;;;;;4991713;28;20097;-65
2021/05/14 08:55:14;;;;;;;0.90;0.50;;;11.90;79.00;;;;;;4991554;28;20019;-65
2021/05/14 08:57:40;;;;;;;0.47;0.45;;;12.00;78.90;;;;;;4991467;28;20041;-64
2021/05/14 09:00:08;;;;;;;3.50;0.70;;;12.10;79.90;;;;;;4988824;28;20031;-65
2021/05/14 09:02:35;;;;;;;0.60;0.50;;;12.40;83.80;;;;;;4991743;28;20030;-64
2021/05/14 09:05:20;;;;;;;0.57;0.50;;;12.60;78.00;;;;;;4972555;28;20493;-65
2021/05/14 09:07:46;;;;;;;1.02;0.50;;;12.60;77.20;;;;;;4994250;28;20430;-67
2021/05/14 09:10:13;;;;;;;0.77;0.57;;;12.70;76.70;;;;;;4978044;28;20076;-66
2021/05/14 09:12:40;;;;;;;0.50;0.50;;;12.70;75.70;;;;;;4995590;28;20034;-67
2021/05/14 09:15:33;;;;;;;1.40;0.60;;;12.60;76.00;;;;;;4995708;28;20092;-65
2021/05/14 09:18:19;;;;;;;0.52;0.52;;;12.60;76.50;;;;;;4994216;28;20490;-66
2021/05/14 09:20:46;;;;;;;1.00;0.60;;;12.70;75.50;;;;;;4997827;28;20023;-66
2021/05/14 09:23:15;;;;;;;1.42;0.50;;;12.70;75.70;;;;;;4995124;28;20030;-66
2021/05/14 09:25:54;;;;;;;0.80;0.50;;;12.80;75.70;;;;;;4995278;28;20038;-66
2021/05/14 09:28:43;;;;;;;0.40;0.40;;;12.90;75.80;;;;;;4985282;28;20034;-66
2021/05/14 09:31:18;;;;;;;0.60;0.60;;;13.00;75.00;;;;;;4977698;28;20030;-66
2021/05/14 09:33:47;;;;;;;2.05;0.60;;;13.10;74.00;;;;;;4977615;28;20478;-66
2021/05/14 09:36:22;;;;;;;0.77;0.50;;;13.20;75.50;;;;;;4995161;28;20026;-66
2021/05/14 09:38:55;;;;;;;3.45;0.60;;;13.20;72.70;;;;;;4992084;28;20069;-66
2021/05/14 09:41:37;;;;;;;2.92;0.57;;;13.10;73.00;;;;;;4994024;28;20026;-64
2021/05/14 09:44:07;;;;;;;1.98;0.70;;;12.90;72.30;;;;;;4994283;28;20026;-66
2021/05/14 09:46:57;;;;;;;0.90;0.50;;;12.80;73.10;;;;;;4994862;28;20030;-67
2021/05/14 09:49:25;;;;;;;0.70;0.50;;;12.60;73.40;;;;;;4983125;28;20045;-65
2021/05/14 09:52:00;;;;;;;1.33;0.50;;;12.70;74.10;;;;;;4994779;28;20056;-66
2021/05/14 09:54:37;;;;;;;0.50;0.50;;;12.90;77.00;;;;;;4987735;28;20030;-66
2021/05/14 09:57:31;;;;;;;6.97;1.08;;;13.30;74.60;;;;;;4996169;28;20049;-65
2021/05/14 10:00:05;;;;;;;1.00;0.52;;;13.50;74.60;;;;;;4990382;28;20110;-65
2021/05/14 10:02:37;;;;;;;0.85;0.50;;;13.40;73.00;;;;;;4993689;28;20482;-65
2021/05/14 10:05:11;;;;;;;5.70;1.05;;;13.40;72.70;;;;;;4993474;28;20030;-66
2021/05/14 10:07:39;;;;;;;0.85;0.40;;;13.40;71.90;;;;;;4994403;28;20034;-65
2021/05/14 10:10:08;;;;;;;0.47;0.47;;;13.30;72.20;;;;;;4994452;28;20033;-65
2021/05/14 10:12:35;;;;;;;1.08;0.60;;;13.30;72.10;;;;;;4988882;28;20030;-64
2021/05/14 10:15:03;;;;;;;2.97;0.55;;;13.20;71.50;;;;;;4993976;28;20026;-64
2021/05/14 10:17:29;;;;;;;0.80;0.50;;;13.00;71.90;;;;;;4990916;28;20431;-64
2021/05/14 10:19:57;;;;;;;0.50;0.50;;;13.10;73.00;;;;;;4994103;28;20029;-64
2021/05/14 10:22:30;;;;;;;1.52;0.65;;;13.00;72.30;;;;;;4987271;28;20093;-64
2021/05/14 10:25:00;;;;;;;2.70;0.50;;;13.00;72.20;;;;;;4988152;28;20089;-64
2021/05/14 10:27:28;;;;;;;0.60;0.60;;;13.10;72.60;;;;;;4991394;28;20038;-65
2021/05/14 10:29:56;;;;;;;0.82;0.43;;;13.10;72.40;;;;;;4985795;28;20050;-64
2021/05/14 10:32:43;;;;;;;0.55;0.55;;;13.10;73.20;;;;;;4990846;28;20022;-65
2021/05/14 10:35:11;;;;;;;1.88;0.60;;;13.40;72.70;;;;;;4984376;28;20022;-65
2021/05/14 10:38:03;;;;;;;1.08;0.70;;;13.50;72.10;;;;;;4993932;28;20553;-65
2021/05/14 10:40:33;;;;;;;1.73;0.60;;;13.50;71.80;;;;;;4978896;28;20495;-65
2021/05/14 10:43:06;;;;;;;0.90;0.67;;;13.60;72.00;;;;;;4990848;28;20077;-65
2021/05/14 10:45:36;;;;;;;0.70;0.50;;;13.70;71.30;;;;;;4988672;28;20110;-65
2021/05/14 10:48:04;;;;;;;0.80;0.50;;;13.60;71.10;;;;;;4990509;28;20030;-65
2021/05/14 10:50:40;;;;;;;0.75;0.60;;;13.60;70.60;;;;;;4984133;28;20030;-65
2021/05/14 10:53:40;;;;;;;1.95;0.40;;;13.60;71.10;;;;;;4979333;28;20042;-65
2021/05/14 10:56:09;;;;;;;0.40;0.40;;;13.70;70.30;;;;;;4984277;28;20074;-65
2021/05/14 10:58:37;;;;;;;0.50;0.50;;;13.60;70.20;;;;;;4983993;28;20030;-65
2021/05/14 11:01:04;;;;;;;8.50;1.30;;;13.60;70.70;;;;;;4989870;28;20387;-65
2021/05/14 11:03:34;;;;;;;1.05;0.50;;;13.60;71.00;;;;;;4989663;28;20027;-67
2021/05/14 11:06:11;;;;;;;2.28;0.47;;;13.70;70.20;;;;;;4990708;28;20073;-67
2021/05/14 11:08:37;;;;;;;3.80;1.30;;;13.70;70.50;;;;;;4982540;28;20081;-67
2021/05/14 11:11:03;;;;;;;0.65;0.65;;;13.50;69.70;;;;;;4992053;28;20057;-67
2021/05/14 11:13:36;;;;;;;2.53;0.70;;;13.40;70.50;;;;;;4986708;28;20026;-67
2021/05/14 11:16:44;;;;;;;0.57;0.57;;;13.30;70.80;;;;;;4985724;28;20050;-67
2021/05/14 11:19:22;;;;;;;0.68;0.63;;;13.30;70.60;;;;;;4945390;28;20074;-67
2021/05/14 11:22:00;;;;;;;0.50;0.50;;;13.30;70.50;;;;;;4992418;28;20030;-68
2021/05/14 11:24:30;;;;;;;0.60;0.60;;;13.10;70.90;;;;;;4992471;28;20031;-67
2021/05/14 11:27:02;;;;;;;2.80;0.70;;;13.30;72.10;;;;;;4992782;28;20026;-67
2021/05/14 11:30:07;;;;;;;6.35;0.80;;;13.20;70.70;;;;;;4992223;28;20145;-67
2021/05/14 11:32:41;;;;;;;3.40;0.60;;;13.20;71.00;;;;;;4992419;28;20490;-67
2021/05/14 11:35:13;;;;;;;0.77;0.52;;;13.10;71.60;;;;;;4992826;28;20077;-67
2021/05/14 11:37:41;;;;;;;1.67;0.70;;;13.20;71.80;;;;;;4992117;28;20117;-70
2021/05/14 11:40:11;;;;;;;3.80;1.02;;;13.20;72.00;;;;;;4992140;28;20037;-69
2021/05/14 11:42:42;;;;;;;;;;;13.50;73.70;;;;;;4991900;28;20042;-69
2021/05/14 11:45:16;;;;;;;0.45;0.45;;;13.60;71.10;;;;;;4992388;28;20377;-69
2021/05/14 11:47:56;;;;;;;3.80;0.80;;;13.60;70.80;;;;;;4992682;28;20405;-67
2021/05/14 11:50:24;;;;;;;1.90;0.57;;;13.40;70.30;;;;;;4992157;28;20037;-69
2021/05/14 11:52:50;;;;;;;2.58;0.60;;;13.50;71.70;;;;;;4992423;28;20042;-69
2021/05/14 11:55:17;;;;;;;2.42;0.80;;;13.70;74.70;;;;;;4974350;28;20443;-70
2021/05/14 11:57:54;;;;;;;3.30;0.60;;;13.70;70.60;;;;;;4992395;28;20041;-69
2021/05/14 12:00:29;;;;;;;0.80;0.80;;;13.60;70.90;;;;;;4994844;28;20030;-69
2021/05/14 12:02:58;;;;;;;3.42;0.50;;;13.70;71.80;;;;;;5001505;28;20023;-69
2021/05/14 12:05:25;;;;;;;1.10;0.70;;;13.70;71.50;;;;;;4990522;28;20065;-68
2021/05/14 12:07:51;;;;;;;1.33;0.60;;;13.70;70.60;;;;;;4979923;28;20034;-69
2021/05/14 12:10:19;;;;;;;0.50;0.50;;;13.70;70.80;;;;;;4985843;28;20045;-69
2021/05/14 12:12:50;;;;;;;0.80;0.50;;;13.70;70.70;;;;;;4991213;28;20423;-69
2021/05/14 12:15:23;;;;;;;0.70;0.60;;;13.60;70.60;;;;;;4990464;28;20022;-69
2021/05/14 12:17:59;;;;;;;1.00;0.75;;;13.50;69.90;;;;;;4992045;28;20026;-69
2021/05/14 12:20:37;;;;;;;2.63;0.70;;;13.40;70.50;;;;;;4990766;28;20080;-69
2021/05/14 12:23:05;;;;;;;2.17;0.80;;;13.40;71.00;;;;;;4991391;28;20022;-70
2021/05/14 12:25:52;;;;;;;2.97;0.77;;;13.40;72.20;;;;;;4991327;28;20114;-71
2021/05/14 12:28:37;;;;;;;1.80;0.60;;;13.40;70.50;;;;;;4992182;28;20050;-70
2021/05/14 12:31:10;;;;;;;4.00;1.20;;;13.40;71.70;;;;;;4977298;28;20022;-70
2021/05/14 12:33:56;;;;;;;0.63;0.60;;;13.50;71.20;;;;;;4991112;28;20609;-70
2021/05/14 12:36:25;;;;;;;10.10;1.45;;;13.60;71.30;;;;;;4991821;28;20026;-70
2021/05/14 12:38:53;;;;;;;0.73;0.65;;;13.70;71.10;;;;;;4991989;28;20069;-70
2021/05/14 12:41:33;;;;;;;2.78;0.70;;;13.60;70.30;;;;;;4982281;28;20057;-70
2021/05/14 12:44:19;;;;;;;3.35;0.73;;;13.60;70.70;;;;;;4984705;28;20026;-70
2021/05/14 12:47:03;;;;;;;8.15;0.90;;;13.50;70.50;;;;;;4986982;28;20506;-70
2021/05/14 12:49:53;;;;;;;4.88;0.80;;;13.60;72.30;;;;;;4990552;28;20030;-72
2021/05/14 12:52:21;;;;;;;1.67;0.70;;;13.60;70.60;;;;;;4977153;28;20061;-70
2021/05/14 12:55:14;;;;;;;2.22;0.60;;;13.50;71.30;;;;;;4990904;28;20089;-69
2021/05/14 12:57:53;;;;;;;0.95;0.75;;;13.70;70.90;;;;;;4968714;28;20047;-68
2021/05/14 13:00:38;;;;;;;5.63;0.75;;;13.60;72.00;;;;;;4987697;28;20550;-68
2021/05/14 13:03:04;;;;;;;1.30;0.70;;;13.60;73.00;;;;;;4987641;28;20038;-68
2021/05/14 13:05:40;;;;;;;1.02;0.80;;;13.60;73.70;;;;;;4990712;28;20398;-68
2021/05/14 13:08:07;;;;;;;5.13;0.77;;;13.70;73.10;;;;;;4989414;28;20092;-69
2021/05/14 13:10:56;;;;;;;1.15;0.70;;;13.60;73.10;;;;;;4985859;28;20549;-70
2021/05/14 13:13:24;;;;;;;2.08;0.90;;;13.50;72.60;;;;;;4986270;28;20032;-70
2021/05/14 13:15:53;;;;;;;1.67;0.68;;;13.60;74.00;;;;;;4985816;28;20031;-69
2021/05/14 13:18:38;;;;;;;1.45;0.73;;;13.60;72.40;;;;;;4984875;28;20114;-70
2021/05/14 13:21:05;;;;;;;2.28;0.82;;;13.60;73.00;;;;;;4983860;28;20022;-69
2021/05/14 13:23:31;;;;;;;0.70;0.70;;;13.60;73.10;;;;;;4987505;28;20034;-69
2021/05/14 13:25:57;;;;;;;1.00;0.90;;;13.50;72.30;;;;;;4990502;28;20026;-69
2021/05/14 13:28:23;;;;;;;1.15;1.00;;;13.50;72.60;;;;;;4988384;28;20038;-69
2021/05/14 13:30:50;;;;;;;0.70;0.70;;;13.50;72.50;;;;;;4990654;28;20034;-69
2021/05/14 13:33:16;;;;;;;1.20;0.70;;;13.50;72.50;;;;;;4990956;28;20093;-68
2021/05/14 13:35:42;;;;;;;1.48;0.75;;;13.40;72.60;;;;;;4990690;28;20029;-69
2021/05/14 13:38:07;;;;;;;5.13;0.63;;;13.40;72.80;;;;;;4988792;28;20096;-69
2021/05/14 13:40:34;;;;;;;0.77;0.77;;;13.40;72.40;;;;;;4985860;28;20650;-70
2021/05/14 13:42:59;;;;;;;2.28;0.70;;;13.40;73.00;;;;;;4990376;28;20525;-70
2021/05/14 13:45:26;;;;;;;1.40;0.85;;;13.40;72.70;;;;;;4991404;28;20050;-70
2021/05/14 13:47:51;;;;;;;0.80;0.80;;;13.50;72.70;;;;;;4993986;28;20557;-71
2021/05/14 13:50:17;;;;;;;1.50;1.02;;;13.50;73.00;;;;;;4993576;28;20030;-71
2021/05/14 13:52:43;;;;;;;0.80;0.80;;;13.50;72.00;;;;;;4994179;28;20118;-71
2021/05/14 13:55:09;;;;;;;1.77;0.70;;;13.40;72.10;;;;;;4991290;28;20026;-72
2021/05/14 13:57:35;;;;;;;1.58;0.90;;;13.50;72.50;;;;;;4993908;28;20046;-71
2021/05/14 14:00:01;;;;;;;0.70;0.65;;;13.40;72.30;;;;;;4984999;28;20498;-72
2021/05/14 14:02:27;;;;;;;1.95;0.90;;;13.40;71.70;;;;;;4993600;28;20022;-71
2021/05/14 14:04:52;;;;;;;1.00;0.93;;;13.40;72.10;;;;;;4993826;28;20023;-71
2021/05/14 14:07:18;;;;;;;1.80;0.80;;;13.30;71.90;;;;;;4993519;28;20479;-71
2021/05/14 14:09:44;;;;;;;0.75;0.70;;;13.30;72.50;;;;;;4991160;28;20080;-71
2021/05/14 14:12:10;;;;;;;0.80;0.80;;;13.30;72.50;;;;;;4993399;28;20429;-71
2021/05/14 14:14:36;;;;;;;0.73;0.73;;;13.30;72.10;;;;;;4990645;28;20040;-72
2021/05/14 14:17:02;;;;;;;2.53;0.90;;;13.30;71.90;;;;;;4993582;28;20018;-73
2021/05/14 14:19:27;;;;;;;1.38;0.93;;;13.30;72.80;;;;;;4993341;28;20030;-73
2021/05/14 14:21:54;;;;;;;0.70;0.70;;;13.20;72.40;;;;;;4992511;28;20109;-72
2021/05/14 14:24:21;;;;;;;1.35;0.90;;;13.30;72.80;;;;;;4992059;28;20034;-73
2021/05/14 14:26:47;;;;;;;1.42;0.80;;;13.30;71.90;;;;;;4990628;28;20022;-73
2021/05/14 14:29:12;;;;;;;4.20;0.82;;;13.20;71.60;;;;;;4991038;28;20058;-73
2021/05/14 14:31:39;;;;;;;0.77;0.70;;;13.10;72.40;;;;;;4992772;28;20100;-73
2021/05/14 14:34:05;;;;;;;0.65;0.63;;;13.20;72.50;;;;;;4991380;28;20100;-73
2021/05/14 14:36:31;;;;;;;1.30;0.73;;;13.20;72.50;;;;;;4993117;28;20022;-73
2021/05/14 14:38:57;;;;;;;0.93;0.77;;;13.20;72.70;;;;;;4992789;28;20030;-72
2021/05/14 14:41:23;;;;;;;1.60;0.70;;;13.30;72.50;;;;;;4993052;28;20027;-73
2021/05/14 14:43:49;;;;;;;0.60;0.60;;;13.30;72.90;;;;;;4988864;28;20073;-73
2021/05/14 14:46:15;;;;;;;1.15;0.70;;;13.30;71.80;;;;;;4990278;28;20068;-73
2021/05/14 14:48:41;;;;;;;0.77;0.73;;;13.30;72.50;;;;;;4988029;28;20073;-72
2021/05/14 14:51:07;;;;;;;0.80;0.80;;;13.30;71.90;;;;;;4991207;28;20440;-72
2021/05/14 14:53:32;;;;;;;1.08;0.82;;;13.20;71.80;;;;;;4990029;28;20101;-72
2021/05/14 14:55:58;;;;;;;0.68;0.68;;;13.30;73.30;;;;;;4989390;28;20039;-72
2021/05/14 14:58:25;;;;;;;1.20;0.90;;;13.30;71.90;;;;;;4991949;28;20034;-73
2021/05/14 15:00:51;;;;;;;0.85;0.77;;;13.30;71.90;;;;;;4992630;28;20053;-73
2021/05/14 15:03:17;;;;;;;1.85;0.95;;;13.40;72.70;;;;;;4989930;28;20054;-72
2021/05/14 15:05:43;;;;;;;0.95;0.80;;;13.40;72.30;;;;;;4989490;28;20069;-72
2021/05/14 15:08:09;;;;;;;3.50;0.73;;;13.50;73.30;;;;;;4992086;28;20062;-72
2021/05/14 15:10:35;;;;;;;1.35;0.90;;;13.50;71.30;;;;;;4992352;28;20029;-72
2021/05/14 15:13:03;;;;;;;1.45;1.35;;;13.40;72.30;;;;;;4992351;28;20038;-72
2021/05/14 15:15:28;;;;;;;1.30;1.10;;;13.30;71.50;;;;;;4992216;28;20022;-72
2021/05/14 15:17:54;;;;;;;1.83;0.80;;;13.30;71.80;;;;;;4988179;28;20037;-72
2021/05/14 15:20:24;;;;;;;1.20;0.98;;;13.30;71.60;;;;;;4992067;28;20134;-73
2021/05/14 15:22:50;;;;;;;0.80;0.80;;;13.30;71.90;;;;;;4989064;28;20034;-72
2021/05/14 15:25:15;;;;;;;1.35;0.90;;;13.20;72.00;;;;;;4967725;28;20084;-72
2021/05/14 15:27:41;;;;;;;0.88;0.77;;;13.20;72.20;;;;;;4985885;28;20028;-72
2021/05/14 15:30:08;;;;;;;1.25;0.75;;;13.10;72.50;;;;;;4967706;28;20526;-73
2021/05/14 15:32:34;;;;;;;1.25;0.80;;;13.10;73.10;;;;;;4986570;28;20065;-72
2021/05/14 15:35:04;;;;;;;1.40;0.93;;;13.20;73.30;;;;;;4986773;28;20116;-71
2021/05/14 15:37:29;;;;;;;1.13;0.90;;;13.10;72.90;;;;;;4984520;28;20023;-72
2021/05/14 15:39:55;;;;;;;0.80;0.80;;;13.20;72.90;;;;;;4986583;28;20546;-72
2021/05/14 15:42:21;;;;;;;4.25;1.00;;;13.10;72.40;;;;;;4992373;28;20538;-73
2021/05/14 15:44:47;;;;;;;1.77;0.90;;;13.00;72.40;;;;;;4980545;28;20037;-73
2021/05/14 15:47:12;;;;;;;2.47;0.90;;;12.70;72.50;;;;;;4992365;28;20069;-73
2021/05/14 15:49:38;;;;;;;1.83;1.02;;;12.60;73.50;;;;;;4992262;28;20116;-73
2021/05/14 15:52:04;;;;;;;1.10;0.90;;;12.50;73.60;;;;;;4988335;28;20114;-73
2021/05/14 15:54:32;;;;;;;3.13;1.10;;;12.40;74.20;;;;;;4992098;28;20034;-71
2021/05/14 15:56:59;;;;;;;6.03;1.10;;;12.40;74.50;;;;;;4974427;28;20403;-69
2021/05/14 15:59:25;;;;;;;3.75;1.38;;;12.60;80.00;;;;;;4991723;28;20030;-70
2021/05/14 16:01:50;;;;;;;1.38;0.98;;;13.10;76.80;;;;;;4992444;28;20038;-70
2021/05/14 16:04:16;;;;;;;3.10;1.08;;;12.90;73.30;;;;;;4992067;28;20442;-70
2021/05/14 16:06:42;;;;;;;1.00;0.90;;;12.60;73.80;;;;;;4991720;28;20018;-70
2021/05/14 16:09:08;;;;;;;3.65;1.48;;;12.40;74.50;;;;;;4991967;28;20045;-70
2021/05/14 16:11:34;;;;;;;1.30;1.20;;;12.30;75.00;;;;;;4992108;28;20065;-70
2021/05/14 16:13:59;;;;;;;1.30;1.00;;;12.30;75.10;;;;;;4992458;28;20030;-70
2021/05/14 16:16:27;;;;;;;1.52;1.10;;;12.10;75.20;;;;;;5000413;28;20033;-70
2021/05/14 16:18:53;;;;;;;1.77;1.00;;;12.00;75.80;;;;;;4992272;28;20022;-70
2021/05/14 16:21:19;;;;;;;2.83;1.20;;;11.90;76.20;;;;;;4992155;28;20026;-69
2021/05/14 16:23:46;;;;;;;1.75;1.00;;;11.90;76.60;;;;;;4992219;28;20106;-70
2021/05/14 16:26:12;;;;;;;1.10;1.00;;;11.80;76.70;;;;;;4984201;28;20014;-70
2021/05/14 16:28:37;;;;;;;1.63;0.90;;;11.90;76.90;;;;;;4991842;28;20639;-70
2021/05/14 16:31:03;;;;;;;1.67;1.10;;;11.90;76.90;;;;;;4991941;28;20022;-70
2021/05/14 16:33:29;;;;;;;3.00;1.20;;;11.70;77.10;;;;;;4991941;28;20050;-68
2021/05/14 16:35:57;;;;;;;2.15;1.27;;;11.70;77.50;;;;;;4974905;28;20054;-70
2021/05/14 16:38:23;;;;;;;2.55;1.20;;;12.40;86.00;;;;;;4992000;28;20031;-71
2021/05/14 16:40:49;;;;;;;2.08;1.10;;;12.70;83.10;;;;;;4986459;28;20027;-69
2021/05/14 16:43:16;;;;;;;1.85;1.20;;;12.60;76.50;;;;;;4992217;28;20483;-68
2021/05/14 16:45:45;;;;;;;2.85;1.40;;;12.30;76.60;;;;;;4992242;28;20023;-68
2021/05/14 16:48:11;;;;;;;1.67;1.02;;;12.10;76.80;;;;;;4994267;28;20046;-69
2021/05/14 16:50:36;;;;;;;3.58;1.38;;;11.90;77.60;;;;;;5005955;28;20375;-69
2021/05/14 16:53:02;;;;;;;1.30;1.13;;;11.80;78.10;;;;;;4992350;28;20030;-70